sensor_id;sensor_type;location;lat;lon;timestamp;pressure;altitude;pressure_sealevel;temperature;humidity
24620;BME280;12763;55.802;37.404;2024-01-25T00:00:37;98280.00;;;3.70;100.00
24620;BME280;12763;55.802;37.404;2024-01-25T00:03:03;98273.53;;;3.71;100.00
24620;BME280;12763;55.802;37.404;2024-01-25T00:05:30;98262.28;;;4.00;100.00
24620;BME280;12763;55.802;37.404;2024-01-25T00:07:56;98264.31;;;3.79;100.00
24620;BME280;12763;55.802;37.404;2024-01-25T00:10:22;98251.31;;;3.81;100.00
24620;BME280;12763;55.802;37.404;2024-01-25T00:12:48;98254.03;;;3.81;100.00
24620;BME280;12763;55.802;37.404;2024-01-25T00:15:14;98251.06;;;3.76;100.00
24620;BME280;12763;55.802;37.404;2024-01-25T00:17:41;98237.03;;;3.85;100.00
24620;BME280;12763;55.802;37.404;2024-01-25T00:20:09;98237.91;;;3.99;100.00
24620;BME280;12763;55.802;37.404;2024-01-25T00:22:36;98243.97;;;4.01;100.00
24620;BME280;12763;55.802;37.404;2024-01-25T00:25:04;98233.91;;;4.14;100.00
24620;BME280;12763;55.802;37.404;2024-01-25T00:27:33;98229.06;;;3.77;100.00
24620;BME280;12763;55.802;37.404;2024-01-25T00:29:59;98232.44;;;4.12;100.00
24620;BME280;12763;55.802;37.404;2024-01-25T00:32:24;98224.47;;;4.10;100.00
24620;BME280;12763;55.802;37.404;2024-01-25T00:34:51;98232.03;;;4.15;100.00
24620;BME280;12763;55.802;37.404;2024-01-25T00:37:17;98224.25;;;4.19;100.00
24620;BME280;12763;55.802;37.404;2024-01-25T00:39:43;98228.66;;;4.06;100.00
24620;BME280;12763;55.802;37.404;2024-01-25T00:42:12;98230.75;;;4.04;100.00
24620;BME280;12763;55.802;37.404;2024-01-25T00:44:40;98218.16;;;4.23;100.00
24620;BME280;12763;55.802;37.404;2024-01-25T00:47:06;98213.56;;;4.30;100.00
24620;BME280;12763;55.802;37.404;2024-01-25T00:49:32;98211.25;;;4.07;100.00
24620;BME280;12763;55.802;37.404;2024-01-25T00:51:59;98207.66;;;3.94;100.00
24620;BME280;12763;55.802;37.404;2024-01-25T00:54:26;98209.09;;;3.77;100.00
24620;BME280;12763;55.802;37.404;2024-01-25T00:56:52;98206.38;;;3.90;100.00
24620;BME280;12763;55.802;37.404;2024-01-25T00:59:19;98204.28;;;3.98;100.00
24620;BME280;12763;55.802;37.404;2024-01-25T01:01:47;98209.78;;;4.05;100.00
24620;BME280;12763;55.802;37.404;2024-01-25T01:04:15;98193.81;;;4.08;100.00
24620;BME280;12763;55.802;37.404;2024-01-25T01:06:41;98190.44;;;4.06;100.00
24620;BME280;12763;55.802;37.404;2024-01-25T01:09:07;98185.00;;;4.13;100.00
24620;BME280;12763;55.802;37.404;2024-01-25T01:11:33;98169.03;;;3.97;100.00
24620;BME280;12763;55.802;37.404;2024-01-25T01:13:59;98173.22;;;3.80;100.00
24620;BME280;12763;55.802;37.404;2024-01-25T01:16:25;98172.38;;;3.73;100.00
24620;BME280;12763;55.802;37.404;2024-01-25T01:18:51;98161.91;;;3.89;100.00
24620;BME280;12763;55.802;37.404;2024-01-25T01:21:17;98162.50;;;3.98;100.00
24620;BME280;12763;55.802;37.404;2024-01-25T01:23:43;98156.88;;;3.86;100.00
24620;BME280;12763;55.802;37.404;2024-01-25T01:26:09;98157.72;;;4.00;100.00
24620;BME280;12763;55.802;37.404;2024-01-25T01:28:36;98157.69;;;3.87;100.00
24620;BME280;12763;55.802;37.404;2024-01-25T01:31:02;98164.00;;;4.13;100.00
24620;BME280;12763;55.802;37.404;2024-01-25T01:33:28;98158.94;;;4.04;100.00
24620;BME280;12763;55.802;37.404;2024-01-25T01:35:54;98155.59;;;3.95;100.00
24620;BME280;12763;55.802;37.404;2024-01-25T01:38:20;98143.81;;;4.14;100.00
24620;BME280;12763;55.802;37.404;2024-01-25T01:40:46;98144.66;;;3.76;100.00
24620;BME280;12763;55.802;37.404;2024-01-25T01:43:21;98143.63;;;3.96;100.00
24620;BME280;12763;55.802;37.404;2024-01-25T01:45:49;98134.81;;;3.68;100.00
24620;BME280;12763;55.802;37.404;2024-01-25T01:48:16;98136.72;;;3.81;100.00
24620;BME280;12763;55.802;37.404;2024-01-25T01:50:43;98146.59;;;3.95;100.00
24620;BME280;12763;55.802;37.404;2024-01-25T01:53:10;98133.75;;;4.15;100.00
24620;BME280;12763;55.802;37.404;2024-01-25T01:55:36;98140.88;;;3.70;100.00
24620;BME280;12763;55.802;37.404;2024-01-25T01:58:03;98143.41;;;3.59;100.00
24620;BME280;12763;55.802;37.404;2024-01-25T02:00:30;98138.78;;;3.52;100.00
24620;BME280;12763;55.802;37.404;2024-01-25T02:03:00;98146.78;;;3.74;100.00
24620;BME280;12763;55.802;37.404;2024-01-25T02:05:26;98136.06;;;3.98;100.00
24620;BME280;12763;55.802;37.404;2024-01-25T02:07:52;98134.59;;;3.96;100.00
24620;BME280;12763;55.802;37.404;2024-01-25T02:10:19;98133.34;;;3.79;100.00
24620;BME280;12763;55.802;37.404;2024-01-25T02:12:46;98119.94;;;3.84;100.00
24620;BME280;12763;55.802;37.404;2024-01-25T02:15:11;98135.44;;;3.64;100.00
24620;BME280;12763;55.802;37.404;2024-01-25T02:17:38;98132.06;;;3.68;100.00
24620;BME280;12763;55.802;37.404;2024-01-25T02:20:04;98130.59;;;3.79;100.00
24620;BME280;12763;55.802;37.404;2024-01-25T02:22:31;98139.66;;;3.86;100.00
24620;BME280;12763;55.802;37.404;2024-01-25T02:24:57;98132.91;;;3.82;100.00
24620;BME280;12763;55.802;37.404;2024-01-25T02:27:23;98133.34;;;3.92;100.00
24620;BME280;12763;55.802;37.404;2024-01-25T02:29:48;98133.78;;;3.89;100.00
24620;BME280;12763;55.802;37.404;2024-01-25T02:32:14;98125.56;;;3.76;100.00
24620;BME280;12763;55.802;37.404;2024-01-25T02:34:40;98127.66;;;3.74;100.00
24620;BME280;12763;55.802;37.404;2024-01-25T02:37:06;98119.28;;;3.75;100.00
24620;BME280;12763;55.802;37.404;2024-01-25T02:39:32;98122.66;;;3.84;100.00
24620;BME280;12763;55.802;37.404;2024-01-25T02:41:58;98118.66;;;3.80;100.00
24620;BME280;12763;55.802;37.404;2024-01-25T02:44:24;98120.94;;;3.56;100.00
24620;BME280;12763;55.802;37.404;2024-01-25T02:46:49;98118.84;;;3.52;100.00
24620;BME280;12763;55.802;37.404;2024-01-25T02:49:15;98119.50;;;3.61;100.00
24620;BME280;12763;55.802;37.404;2024-01-25T02:51:41;98114.88;;;3.54;100.00
24620;BME280;12763;55.802;37.404;2024-01-25T02:54:07;98107.91;;;3.32;100.00
24620;BME280;12763;55.802;37.404;2024-01-25T02:56:33;98107.09;;;3.38;100.00
24620;BME280;12763;55.802;37.404;2024-01-25T02:59:01;98105.19;;;3.39;100.00
24620;BME280;12763;55.802;37.404;2024-01-25T03:01:27;98102.25;;;3.34;100.00
24620;BME280;12763;55.802;37.404;2024-01-25T03:03:53;98103.94;;;3.41;100.00
24620;BME280;12763;55.802;37.404;2024-01-25T03:06:19;98100.59;;;3.59;100.00
24620;BME280;12763;55.802;37.404;2024-01-25T03:08:45;98098.94;;;3.78;100.00
24620;BME280;12763;55.802;37.404;2024-01-25T03:11:11;98096.41;;;3.83;100.00
24620;BME280;12763;55.802;37.404;2024-01-25T03:13:37;98098.06;;;3.71;100.00
24620;BME280;12763;55.802;37.404;2024-01-25T03:16:04;98090.09;;;3.63;100.00
24620;BME280;12763;55.802;37.404;2024-01-25T03:18:30;98080.03;;;3.50;100.00
24620;BME280;12763;55.802;37.404;2024-01-25T03:20:56;98091.56;;;3.52;100.00
24620;BME280;12763;55.802;37.404;2024-01-25T03:23:22;98089.28;;;3.69;100.00
24620;BME280;12763;55.802;37.404;2024-01-25T03:25:47;98099.13;;;3.56;100.00
24620;BME280;12763;55.802;37.404;2024-01-25T03:28:13;98086.31;;;3.70;100.00
24620;BME280;12763;55.802;37.404;2024-01-25T03:30:42;98090.53;;;3.79;100.00
24620;BME280;12763;55.802;37.404;2024-01-25T03:33:08;98087.81;;;3.66;100.00
24620;BME280;12763;55.802;37.404;2024-01-25T03:35:34;98089.28;;;3.42;100.00
24620;BME280;12763;55.802;37.404;2024-01-25T03:38:00;98087.16;;;3.58;100.00
24620;BME280;12763;55.802;37.404;2024-01-25T03:40:25;98079.19;;;3.49;100.00
24620;BME280;12763;55.802;37.404;2024-01-25T03:42:51;98088.38;;;3.29;100.00
24620;BME280;12763;55.802;37.404;2024-01-25T03:45:17;98089.28;;;3.42;100.00
24620;BME280;12763;55.802;37.404;2024-01-25T03:47:43;98088.41;;;3.48;100.00
24620;BME280;12763;55.802;37.404;2024-01-25T03:50:10;98079.63;;;3.46;100.00
24620;BME280;12763;55.802;37.404;2024-01-25T03:52:35;98077.72;;;3.53;100.00
24620;BME280;12763;55.802;37.404;2024-01-25T03:55:01;98079.22;;;3.56;100.00
24620;BME280;12763;55.802;37.404;2024-01-25T03:57:29;98077.94;;;3.72;100.00
24620;BME280;12763;55.802;37.404;2024-01-25T03:59:55;98073.72;;;3.30;100.00
24620;BME280;12763;55.802;37.404;2024-01-25T04:02:20;98082.75;;;3.43;100.00
24620;BME280;12763;55.802;37.404;2024-01-25T04:04:46;98072.88;;;3.29;100.00
24620;BME280;12763;55.802;37.404;2024-01-25T04:07:12;98077.25;;;3.11;100.00
24620;BME280;12763;55.802;37.404;2024-01-25T04:09:38;98067.84;;;3.46;100.00
24620;BME280;12763;55.802;37.404;2024-01-25T04:12:05;98062.41;;;3.33;100.00
24620;BME280;12763;55.802;37.404;2024-01-25T04:14:32;98057.78;;;3.14;100.00
24620;BME280;12763;55.802;37.404;2024-01-25T04:16:57;98068.66;;;3.07;100.00
24620;BME280;12763;55.802;37.404;2024-01-25T04:19:24;98064.47;;;2.98;100.00
24620;BME280;12763;55.802;37.404;2024-01-25T04:21:50;98068.66;;;3.01;100.00
24620;BME280;12763;55.802;37.404;2024-01-25T04:24:16;98069.94;;;3.11;100.00
24620;BME280;12763;55.802;37.404;2024-01-25T04:26:42;98063.66;;;3.17;100.00
24620;BME280;12763;55.802;37.404;2024-01-25T04:29:08;98060.72;;;3.32;100.00
24620;BME280;12763;55.802;37.404;2024-01-25T04:31:34;98063.22;;;3.40;100.00
24620;BME280;12763;55.802;37.404;2024-01-25T04:34:00;98058.84;;;3.32;100.00
24620;BME280;12763;55.802;37.404;2024-01-25T04:36:26;98065.53;;;3.23;100.00
24620;BME280;12763;55.802;37.404;2024-01-25T04:38:51;98068.66;;;3.07;100.00
24620;BME280;12763;55.802;37.404;2024-01-25T04:41:17;98063.78;;;2.83;100.00
24620;BME280;12763;55.802;37.404;2024-01-25T04:43:43;98058.56;;;2.94;100.00
24620;BME280;12763;55.802;37.404;2024-01-25T04:46:10;98070.38;;;3.15;100.00
24620;BME280;12763;55.802;37.404;2024-01-25T04:48:36;98067.38;;;2.96;100.00
24620;BME280;12763;55.802;37.404;2024-01-25T04:51:02;98067.00;;;3.32;100.00
24620;BME280;12763;55.802;37.404;2024-01-25T04:53:28;98066.59;;;3.29;100.00
24620;BME280;12763;55.802;37.404;2024-01-25T04:55:54;98062.19;;;3.21;100.00
24620;BME280;12763;55.802;37.404;2024-01-25T04:58:20;98063.63;;;3.11;100.00
24620;BME280;12763;55.802;37.404;2024-01-25T05:00:46;98066.38;;;3.17;100.00
24620;BME280;12763;55.802;37.404;2024-01-25T05:03:12;98063.47;;;3.38;100.00
24620;BME280;12763;55.802;37.404;2024-01-25T05:05:38;98061.56;;;3.45;100.00
24620;BME280;12763;55.802;37.404;2024-01-25T05:08:05;98065.53;;;3.17;100.00
24620;BME280;12763;55.802;37.404;2024-01-25T05:10:31;98061.94;;;3.03;100.00
24620;BME280;12763;55.802;37.404;2024-01-25T05:12:57;98059.34;;;2.82;100.00
24620;BME280;12763;55.802;37.404;2024-01-25T05:15:22;98060.03;;;2.97;100.00
24620;BME280;12763;55.802;37.404;2024-01-25T05:17:48;98064.41;;;2.78;100.00
24620;BME280;12763;55.802;37.404;2024-01-25T05:20:14;98058.91;;;2.72;100.00
24620;BME280;12763;55.802;37.404;2024-01-25T05:22:42;98059.78;;;2.79;100.00
24620;BME280;12763;55.802;37.404;2024-01-25T05:25:08;98058.47;;;2.68;100.00
24620;BME280;12763;55.802;37.404;2024-01-25T05:27:35;98056.63;;;2.75;100.00
24620;BME280;12763;55.802;37.404;2024-01-25T05:30:01;98059.72;;;2.59;100.00
24620;BME280;12763;55.802;37.404;2024-01-25T05:32:30;98052.06;;;2.89;100.00
24620;BME280;12763;55.802;37.404;2024-01-25T05:34:56;98051.38;;;2.74;100.00
24620;BME280;12763;55.802;37.404;2024-01-25T05:37:22;98064.22;;;2.86;100.00
24620;BME280;12763;55.802;37.404;2024-01-25T05:39:48;98065.31;;;3.18;100.00
24620;BME280;12763;55.802;37.404;2024-01-25T05:42:14;98060.59;;;2.73;100.00
24620;BME280;12763;55.802;37.404;2024-01-25T05:44:40;98061.47;;;2.80;100.00
24620;BME280;12763;55.802;37.404;2024-01-25T05:47:06;98060.53;;;2.60;100.00
24620;BME280;12763;55.802;37.404;2024-01-25T05:49:31;98069.44;;;2.88;100.00
24620;BME280;12763;55.802;37.404;2024-01-25T05:51:57;98064.88;;;2.95;100.00
24620;BME280;12763;55.802;37.404;2024-01-25T05:54:23;98068.59;;;2.81;100.00
24620;BME280;12763;55.802;37.404;2024-01-25T05:56:49;98061.19;;;2.68;100.00
24620;BME280;12763;55.802;37.404;2024-01-25T05:59:15;98058.94;;;2.85;100.00
24620;BME280;12763;55.802;37.404;2024-01-25T06:01:41;98059.44;;;3.08;100.00
24620;BME280;12763;55.802;37.404;2024-01-25T06:04:07;98054.94;;;2.74;100.00
24620;BME280;12763;55.802;37.404;2024-01-25T06:06:33;98054.28;;;2.66;100.00
24620;BME280;12763;55.802;37.404;2024-01-25T06:08:58;98059.34;;;2.75;100.00
24620;BME280;12763;55.802;37.404;2024-01-25T06:11:24;98058.13;;;2.91;100.00
24620;BME280;12763;55.802;37.404;2024-01-25T06:13:50;98054.38;;;2.92;100.00
24620;BME280;12763;55.802;37.404;2024-01-25T06:16:16;98052.22;;;2.74;100.00
24620;BME280;12763;55.802;37.404;2024-01-25T06:18:42;98040.25;;;2.62;100.00
24620;BME280;12763;55.802;37.404;2024-01-25T06:21:08;98051.44;;;2.87;100.00
24620;BME280;12763;55.802;37.404;2024-01-25T06:23:34;98055.63;;;2.96;100.00
24620;BME280;12763;55.802;37.404;2024-01-25T06:26:00;98047.03;;;2.99;100.00
24620;BME280;12763;55.802;37.404;2024-01-25T06:28:26;98049.31;;;2.76;100.00
24620;BME280;12763;55.802;37.404;2024-01-25T06:30:52;98054.31;;;2.72;100.00
24620;BME280;12763;55.802;37.404;2024-01-25T06:33:18;98043.19;;;2.74;100.00
24620;BME280;12763;55.802;37.404;2024-01-25T06:35:44;98041.56;;;2.86;100.00
24620;BME280;12763;55.802;37.404;2024-01-25T06:38:10;98039.22;;;2.70;100.00
24620;BME280;12763;55.802;37.404;2024-01-25T06:40:36;98052.19;;;2.61;100.00
24620;BME280;12763;55.802;37.404;2024-01-25T06:43:03;98051.06;;;2.43;100.00
24620;BME280;12763;55.802;37.404;2024-01-25T06:45:29;98055.94;;;2.60;100.00
24620;BME280;12763;55.802;37.404;2024-01-25T06:47:55;98052.38;;;2.60;100.00
24620;BME280;12763;55.802;37.404;2024-01-25T06:50:21;98054.75;;;2.76;100.00
24620;BME280;12763;55.802;37.404;2024-01-25T06:52:47;98049.31;;;2.82;100.00
24620;BME280;12763;55.802;37.404;2024-01-25T06:55:13;98056.38;;;2.64;100.00
24620;BME280;12763;55.802;37.404;2024-01-25T06:57:39;98047.19;;;2.65;100.00
24620;BME280;12763;55.802;37.404;2024-01-25T07:00:06;98064.03;;;3.08;100.00
24620;BME280;12763;55.802;37.404;2024-01-25T07:02:32;98059.00;;;2.98;100.00
24620;BME280;12763;55.802;37.404;2024-01-25T07:04:58;98064.22;;;2.86;100.00
24620;BME280;12763;55.802;37.404;2024-01-25T07:07:24;98060.81;;;2.78;100.00
24620;BME280;12763;55.802;37.404;2024-01-25T07:09:49;98074.47;;;2.84;100.00
24620;BME280;12763;55.802;37.404;2024-01-25T07:12:15;98064.75;;;2.62;100.00
24620;BME280;12763;55.802;37.404;2024-01-25T07:14:41;98064.38;;;2.72;100.00
24620;BME280;12763;55.802;37.404;2024-01-25T07:17:07;98056.41;;;2.77;100.00
24620;BME280;12763;55.802;37.404;2024-01-25T07:19:33;98063.38;;;2.86;100.00
24620;BME280;12763;55.802;37.404;2024-01-25T07:21:59;98060.34;;;2.61;100.00
24620;BME280;12763;55.802;37.404;2024-01-25T07:24:25;98065.69;;;2.89;100.00
24620;BME280;12763;55.802;37.404;2024-01-25T07:26:52;98066.75;;;2.94;100.00
24620;BME280;12763;55.802;37.404;2024-01-25T07:29:18;98065.94;;;3.01;100.00
24620;BME280;12763;55.802;37.404;2024-01-25T07:31:44;98054.16;;;2.93;100.00
24620;BME280;12763;55.802;37.404;2024-01-25T07:34:10;98054.41;;;3.18;100.00
24620;BME280;12763;55.802;37.404;2024-01-25T07:36:36;98059.44;;;3.21;100.00
24620;BME280;12763;55.802;37.404;2024-01-25T07:39:02;98061.13;;;3.16;100.00
24620;BME280;12763;55.802;37.404;2024-01-25T07:41:28;98054.41;;;3.05;100.00
24620;BME280;12763;55.802;37.404;2024-01-25T07:43:54;98065.91;;;3.07;100.00
24620;BME280;12763;55.802;37.404;2024-01-25T07:46:21;98057.75;;;3.07;100.00
24620;BME280;12763;55.802;37.404;2024-01-25T07:48:49;98056.13;;;3.39;100.00
24620;BME280;12763;55.802;37.404;2024-01-25T07:51:16;98049.63;;;3.46;100.00
24620;BME280;12763;55.802;37.404;2024-01-25T07:53:42;98051.50;;;3.20;100.00
24620;BME280;12763;55.802;37.404;2024-01-25T07:56:08;98054.44;;;3.31;100.00
24620;BME280;12763;55.802;37.404;2024-01-25T07:58:35;98059.66;;;3.13;100.00
24620;BME280;12763;55.802;37.404;2024-01-25T08:01:05;98058.22;;;3.30;100.00
24620;BME280;12763;55.802;37.404;2024-01-25T08:03:32;98062.81;;;3.63;100.00
24620;BME280;12763;55.802;37.404;2024-01-25T08:05:59;98055.91;;;3.27;100.00
24620;BME280;12763;55.802;37.404;2024-01-25T08:08:25;98057.19;;;3.31;100.00
24620;BME280;12763;55.802;37.404;2024-01-25T08:10:52;98059.44;;;3.08;100.00
24620;BME280;12763;55.802;37.404;2024-01-25T08:13:18;98052.56;;;3.25;100.00
24620;BME280;12763;55.802;37.404;2024-01-25T08:15:44;98056.06;;;3.13;100.00
24620;BME280;12763;55.802;37.404;2024-01-25T08:18:10;98067.19;;;3.11;100.00
24620;BME280;12763;55.802;37.404;2024-01-25T08:20:37;98061.53;;;3.06;100.00
24620;BME280;12763;55.802;37.404;2024-01-25T08:23:03;98065.34;;;3.25;100.00
24620;BME280;12763;55.802;37.404;2024-01-25T08:25:29;98055.59;;;2.83;100.00
24620;BME280;12763;55.802;37.404;2024-01-25T08:27:56;98047.06;;;3.06;100.00
24620;BME280;12763;55.802;37.404;2024-01-25T08:30:22;98060.47;;;3.07;100.00
24620;BME280;12763;55.802;37.404;2024-01-25T08:32:48;98054.84;;;3.22;100.00
24620;BME280;12763;55.802;37.404;2024-01-25T08:35:13;98051.47;;;3.00;100.00
24620;BME280;12763;55.802;37.404;2024-01-25T08:37:39;98051.56;;;2.66;100.00
24620;BME280;12763;55.802;37.404;2024-01-25T08:40:06;98058.38;;;3.03;100.00
24620;BME280;12763;55.802;37.404;2024-01-25T08:42:32;98044.69;;;2.83;100.00
24620;BME280;12763;55.802;37.404;2024-01-25T08:44:58;98055.22;;;2.92;100.00
24620;BME280;12763;55.802;37.404;2024-01-25T08:47:24;98060.22;;;2.89;100.00
24620;BME280;12763;55.802;37.404;2024-01-25T08:49:50;98056.91;;;3.07;100.00
24620;BME280;12763;55.802;37.404;2024-01-25T08:52:16;98053.91;;;2.82;100.00
24620;BME280;12763;55.802;37.404;2024-01-25T08:54:42;98058.56;;;2.94;100.00
24620;BME280;12763;55.802;37.404;2024-01-25T08:57:08;98044.13;;;3.01;100.00
24620;BME280;12763;55.802;37.404;2024-01-25T08:59:35;98053.09;;;2.81;100.00
24620;BME280;12763;55.802;37.404;2024-01-25T09:02:04;98059.81;;;2.92;100.00
24620;BME280;12763;55.802;37.404;2024-01-25T09:04:31;98059.66;;;3.20;100.00
24620;BME280;12763;55.802;37.404;2024-01-25T09:06:59;98061.16;;;3.62;100.00
24620;BME280;12763;55.802;37.404;2024-01-25T09:09:25;98060.31;;;3.48;100.00
24620;BME280;12763;55.802;37.404;2024-01-25T09:11:51;98060.31;;;3.54;100.00
24620;BME280;12763;55.802;37.404;2024-01-25T09:14:17;98061.56;;;3.26;100.00
24620;BME280;12763;55.802;37.404;2024-01-25T09:16:43;98063.22;;;3.14;100.00
24620;BME280;12763;55.802;37.404;2024-01-25T09:19:09;98047.22;;;2.78;100.00
24620;BME280;12763;55.802;37.404;2024-01-25T09:21:38;98055.25;;;3.32;100.00
24620;BME280;12763;55.802;37.404;2024-01-25T09:24:05;98046.69;;;3.41;100.00
24620;BME280;12763;55.802;37.404;2024-01-25T09:26:33;98053.13;;;3.01;100.00
24620;BME280;12763;55.802;37.404;2024-01-25T09:28:59;98053.78;;;3.29;100.00
24620;BME280;12763;55.802;37.404;2024-01-25T09:31:25;98055.66;;;3.03;100.00
24620;BME280;12763;55.802;37.404;2024-01-25T09:33:51;98063.84;;;3.09;100.00
24620;BME280;12763;55.802;37.404;2024-01-25T09:36:17;98058.22;;;3.30;100.00
24620;BME280;12763;55.802;37.404;2024-01-25T09:38:43;98053.81;;;3.42;100.00
24620;BME280;12763;55.802;37.404;2024-01-25T09:41:09;98047.28;;;3.56;100.00
24620;BME280;12763;55.802;37.404;2024-01-25T09:43:36;98041.44;;;3.73;100.00
24620;BME280;12763;55.802;37.404;2024-01-25T09:46:02;98048.56;;;3.54;100.00
24620;BME280;12763;55.802;37.404;2024-01-25T09:48:31;98032.59;;;3.05;100.00
24620;BME280;12763;55.802;37.404;2024-01-25T09:50:59;98041.19;;;3.09;100.00
24620;BME280;12763;55.802;37.404;2024-01-25T09:53:25;98046.69;;;3.28;100.00
24620;BME280;12763;55.802;37.404;2024-01-25T09:56:03;98034.28;;;3.19;100.00
24620;BME280;12763;55.802;37.404;2024-01-25T09:58:37;98043.34;;;3.39;100.00
24620;BME280;12763;55.802;37.404;2024-01-25T10:01:04;98032.00;;;3.42;100.00
24620;BME280;12763;55.802;37.404;2024-01-25T10:03:30;98025.06;;;3.46;100.00
24620;BME280;12763;55.802;37.404;2024-01-25T10:05:56;98029.06;;;3.44;100.00
24620;BME280;12763;55.802;37.404;2024-01-25T10:08:22;98031.34;;;3.27;100.00
24620;BME280;12763;55.802;37.404;2024-01-25T10:10:49;98025.50;;;3.17;100.00
24620;BME280;12763;55.802;37.404;2024-01-25T10:13:15;98029.06;;;3.50;100.00
24620;BME280;12763;55.802;37.404;2024-01-25T21:41:26;98413.47;;;1.17;100.00
24620;BME280;12763;55.802;37.404;2024-01-25T21:43:52;98403.53;;;1.54;100.00
24620;BME280;12763;55.802;37.404;2024-01-25T21:46:18;98403.63;;;1.60;100.00
24620;BME280;12763;55.802;37.404;2024-01-25T21:48:44;98397.50;;;1.73;100.00
24620;BME280;12763;55.802;37.404;2024-01-25T21:51:13;98396.16;;;1.98;100.00
24620;BME280;12763;55.802;37.404;2024-01-25T21:53:39;98398.66;;;2.00;100.00
24620;BME280;12763;55.802;37.404;2024-01-25T21:56:05;98399.25;;;1.95;100.00
24620;BME280;12763;55.802;37.404;2024-01-25T21:58:31;98404.13;;;1.85;100.00
24620;BME280;12763;55.802;37.404;2024-01-25T22:00:57;98402.44;;;1.99;100.00
24620;BME280;12763;55.802;37.404;2024-01-25T22:03:23;98398.09;;;2.04;100.00
24620;BME280;12763;55.802;37.404;2024-01-25T22:05:49;98402.63;;;1.97;100.00
24620;BME280;12763;55.802;37.404;2024-01-25T22:08:15;98398.66;;;2.00;100.00
24620;BME280;12763;55.802;37.404;2024-01-25T22:10:41;98408.56;;;2.07;100.00
24620;BME280;12763;55.802;37.404;2024-01-25T22:13:07;98411.75;;;2.11;100.00
24620;BME280;12763;55.802;37.404;2024-01-25T22:15:33;98409.41;;;2.22;100.00
24620;BME280;12763;55.802;37.404;2024-01-25T22:17:59;98418.69;;;2.13;100.00
24620;BME280;12763;55.802;37.404;2024-01-25T22:20:25;98416.84;;;1.99;100.00
24620;BME280;12763;55.802;37.404;2024-01-25T22:22:51;98412.34;;;2.06;100.00
24620;BME280;12763;55.802;37.404;2024-01-25T22:25:17;98421.25;;;2.15;100.00
24620;BME280;12763;55.802;37.404;2024-01-25T22:28:03;98420.75;;;2.26;100.00
24620;BME280;12763;55.802;37.404;2024-01-25T22:30:29;98421.63;;;2.12;100.00
24620;BME280;12763;55.802;37.404;2024-01-25T22:32:54;98416.75;;;1.57;100.00
24620;BME280;12763;55.802;37.404;2024-01-25T22:35:20;98419.84;;;1.68;100.00
24620;BME280;12763;55.802;37.404;2024-01-25T22:37:46;98427.94;;;1.98;100.00
24620;BME280;12763;55.802;37.404;2024-01-25T22:40:12;98427.44;;;2.09;100.00
24620;BME280;12763;55.802;37.404;2024-01-25T22:42:38;98433.19;;;1.99;100.00
24620;BME280;12763;55.802;37.404;2024-01-25T22:45:04;98438.63;;;1.99;100.00
24620;BME280;12763;55.802;37.404;2024-01-25T22:47:31;98430.28;;;2.01;100.00
24620;BME280;12763;55.802;37.404;2024-01-25T22:49:57;98428.91;;;1.90;100.00
24620;BME280;12763;55.802;37.404;2024-01-25T22:52:23;98430.66;;;1.98;100.00
24620;BME280;12763;55.802;37.404;2024-01-25T22:54:49;98437.88;;;2.05;100.00
24620;BME280;12763;55.802;37.404;2024-01-25T22:57:15;98436.00;;;2.06;100.00
24620;BME280;12763;55.802;37.404;2024-01-25T22:59:41;98445.72;;;1.79;100.00
24620;BME280;12763;55.802;37.404;2024-01-25T23:02:07;98446.00;;;1.84;100.00
24620;BME280;12763;55.802;37.404;2024-01-25T23:04:33;98439.94;;;2.03;100.00
24620;BME280;12763;55.802;37.404;2024-01-25T23:06:58;98448.75;;;2.05;100.00
24620;BME280;12763;55.802;37.404;2024-01-25T23:09:24;98454.19;;;2.05;100.00
24620;BME280;12763;55.802;37.404;2024-01-25T23:11:50;98457.78;;;1.91;100.00
24620;BME280;12763;55.802;37.404;2024-01-25T23:14:16;98460.50;;;2.06;100.00
24620;BME280;12763;55.802;37.404;2024-01-25T23:16:42;98448.38;;;2.08;100.00
24620;BME280;12763;55.802;37.404;2024-01-25T23:19:08;98454.47;;;2.10;100.00
24620;BME280;12763;55.802;37.404;2024-01-25T23:21:34;98447.03;;;1.68;100.00
24620;BME280;12763;55.802;37.404;2024-01-25T23:24:00;98459.53;;;1.63;100.00
24620;BME280;12763;55.802;37.404;2024-01-25T23:26:26;98459.69;;;1.76;100.00
24620;BME280;12763;55.802;37.404;2024-01-25T23:28:52;98455.75;;;1.64;100.00
24620;BME280;12763;55.802;37.404;2024-01-25T23:31:18;98469.50;;;1.92;100.00
24620;BME280;12763;55.802;37.404;2024-01-25T23:33:44;98463.91;;;1.93;100.00
24620;BME280;12763;55.802;37.404;2024-01-25T23:36:10;98465.69;;;1.86;100.00
24620;BME280;12763;55.802;37.404;2024-01-25T23:38:36;98478.03;;;2.03;100.00
24620;BME280;12763;55.802;37.404;2024-01-25T23:41:03;98486.09;;;2.11;100.00
24620;BME280;12763;55.802;37.404;2024-01-25T23:43:29;98484.50;;;2.02;100.00
24620;BME280;12763;55.802;37.404;2024-01-25T23:45:55;98494.00;;;2.06;100.00
24620;BME280;12763;55.802;37.404;2024-01-25T23:48:21;98495.00;;;2.05;100.00
24620;BME280;12763;55.802;37.404;2024-01-25T23:50:47;98496.34;;;2.09;100.00
24620;BME280;12763;55.802;37.404;2024-01-25T23:53:13;98489.47;;;2.13;100.00
24620;BME280;12763;55.802;37.404;2024-01-25T23:55:39;98491.06;;;2.08;100.00
24620;BME280;12763;55.802;37.404;2024-01-25T23:58:05;98496.06;;;2.04;100.00
